Time;durP1;ratioP1;P1;durP2;ratioP2;P2;SDS_P1;SDS_P2;PMS_P1;PMS_P2;Temp;Humidity;BMP_temperature;BMP_pressure;BME280_temperature;BME280_humidity;BME280_pressure;Samples;Min_cycle;Max_cycle;Signal;HPM_P1;HPM_P2
2021/10/30 00:01:11;;;;;;;12.77;7.85;;;12.50;99.90;;;;;;4941093;28;20078;-86
2021/10/30 00:03:37;;;;;;;10.32;7.22;;;12.50;99.90;;;;;;4966669;28;20038;-86
2021/10/30 00:06:03;;;;;;;11.65;6.95;;;12.40;99.90;;;;;;4951847;28;20093;-86
2021/10/30 00:08:29;;;;;;;11.32;7.55;;;12.40;99.90;;;;;;4954551;28;20047;-86
2021/10/30 00:10:56;;;;;;;9.25;7.13;;;12.40;99.90;;;;;;4938709;28;20038;-86
2021/10/30 00:13:22;;;;;;;10.30;7.90;;;12.40;99.90;;;;;;4931274;29;20409;-86
2021/10/30 00:15:47;;;;;;;10.23;7.72;;;12.30;99.90;;;;;;4944360;28;20123;-86
2021/10/30 00:18:13;;;;;;;11.82;7.90;;;12.30;99.90;;;;;;4938516;28;20035;-86
2021/10/30 00:20:38;;;;;;;13.13;7.30;;;12.30;99.90;;;;;;4933364;28;20039;-86
2021/10/30 00:23:05;;;;;;;12.43;7.90;;;12.30;99.90;;;;;;4957619;28;20177;-86
2021/10/30 00:25:31;;;;;;;10.23;7.50;;;12.30;99.90;;;;;;4954484;28;20047;-86
2021/10/30 00:27:56;;;;;;;12.18;7.43;;;12.30;99.90;;;;;;4955178;28;20039;-86
2021/10/30 00:30:22;;;;;;;14.70;7.65;;;12.30;99.90;;;;;;4935954;28;20050;-86
2021/10/30 00:32:47;;;;;;;9.60;7.35;;;12.30;99.90;;;;;;4964289;28;20542;-86
2021/10/30 00:35:14;;;;;;;14.27;7.72;;;12.20;99.90;;;;;;4939340;28;20097;-86
2021/10/30 00:37:40;;;;;;;10.43;7.32;;;12.20;99.90;;;;;;4955641;28;20505;-86
2021/10/30 00:40:06;;;;;;;10.57;7.10;;;12.20;99.90;;;;;;4952898;28;20122;-85
2021/10/30 00:42:32;;;;;;;11.10;7.15;;;12.20;99.90;;;;;;4949100;28;20054;-85
2021/10/30 00:44:58;;;;;;;12.07;7.05;;;12.20;99.90;;;;;;4940360;28;20042;-85
2021/10/30 00:47:24;;;;;;;11.00;7.30;;;12.10;99.90;;;;;;4954426;28;20042;-85
2021/10/30 00:49:50;;;;;;;12.55;7.57;;;12.10;99.90;;;;;;4939304;28;20083;-85
2021/10/30 00:52:16;;;;;;;14.43;7.20;;;12.10;99.90;;;;;;4958044;28;20490;-85
2021/10/30 00:54:46;;;;;;;10.73;6.72;;;12.00;99.90;;;;;;4964054;28;20557;-85
2021/10/30 00:57:12;;;;;;;10.75;6.95;;;12.10;99.90;;;;;;4965164;28;20047;-85
2021/10/30 00:59:38;;;;;;;12.25;6.55;;;12.00;99.90;;;;;;4954569;28;20030;-85
2021/10/30 01:02:04;;;;;;;10.93;6.90;;;12.00;99.90;;;;;;4957845;28;20489;-85
2021/10/30 01:04:30;;;;;;;11.38;6.20;;;12.00;99.90;;;;;;4940307;28;20031;-85
2021/10/30 01:06:58;;;;;;;9.35;6.85;;;12.00;99.90;;;;;;4955177;28;20034;-85
2021/10/30 01:09:24;;;;;;;8.85;6.30;;;11.90;99.90;;;;;;4965217;28;20125;-85
2021/10/30 01:11:53;;;;;;;9.95;6.32;;;11.90;99.90;;;;;;4937097;28;20039;-85
2021/10/30 01:14:21;;;;;;;9.77;6.70;;;12.00;99.90;;;;;;4949555;28;20082;-85
2021/10/30 01:16:58;;;;;;;9.10;6.47;;;12.00;99.90;;;;;;4952974;28;20114;-85
2021/10/30 01:19:24;;;;;;;9.63;6.70;;;11.90;99.90;;;;;;4939306;28;20063;-85
2021/10/30 01:21:49;;;;;;;9.38;6.78;;;11.90;99.90;;;;;;4941522;28;20065;-85
2021/10/30 01:24:15;;;;;;;10.55;6.82;;;11.90;99.90;;;;;;4936260;29;20075;-85
2021/10/30 01:26:41;;;;;;;11.10;7.18;;;11.90;99.90;;;;;;4967115;28;20067;-85
2021/10/30 01:29:06;;;;;;;13.07;7.43;;;11.90;99.90;;;;;;4936830;28;20042;-85
2021/10/30 01:31:33;;;;;;;11.05;7.15;;;11.90;99.90;;;;;;4959042;28;20039;-85
2021/10/30 01:34:03;;;;;;;11.95;7.53;;;11.90;99.90;;;;;;4946372;28;20043;-85
2021/10/30 01:36:31;;;;;;;13.23;7.88;;;11.80;99.90;;;;;;4950871;28;20038;-85
2021/10/30 01:38:56;;;;;;;12.20;8.07;;;11.90;99.90;;;;;;4956453;28;20051;-85
2021/10/30 01:41:24;;;;;;;12.82;7.72;;;11.90;99.90;;;;;;4949989;28;20046;-85
2021/10/30 01:43:50;;;;;;;12.00;7.90;;;11.80;99.90;;;;;;4956755;28;20038;-85
2021/10/30 01:46:19;;;;;;;10.50;8.10;;;11.80;99.90;;;;;;4970026;28;20405;-85
2021/10/30 01:48:45;;;;;;;10.32;7.68;;;11.80;99.90;;;;;;4958128;28;20130;-85
2021/10/30 01:51:12;;;;;;;13.85;8.60;;;11.80;99.90;;;;;;4958815;28;20046;-85
2021/10/30 01:53:38;;;;;;;14.85;9.00;;;11.80;99.90;;;;;;4956867;28;20120;-85
2021/10/30 01:56:04;;;;;;;13.20;8.70;;;11.80;99.90;;;;;;4934273;28;20039;-85
2021/10/30 01:58:30;;;;;;;12.85;8.88;;;11.80;99.90;;;;;;4953469;28;20046;-85
2021/10/30 02:00:57;;;;;;;12.13;8.50;;;11.80;99.90;;;;;;4953129;28;20122;-85
2021/10/30 02:03:23;;;;;;;12.35;8.32;;;11.80;99.90;;;;;;4933140;28;20035;-85
2021/10/30 02:05:52;;;;;;;12.68;8.45;;;11.70;99.90;;;;;;4946193;28;20476;-85
2021/10/30 02:08:19;;;;;;;14.18;9.30;;;11.80;99.90;;;;;;4931704;28;20034;-85
2021/10/30 02:10:44;;;;;;;12.00;8.30;;;11.70;99.90;;;;;;4937312;28;20390;-85
2021/10/30 02:13:10;;;;;;;12.15;8.48;;;11.80;99.90;;;;;;4948175;28;20090;-85
2021/10/30 02:15:37;;;;;;;12.15;8.60;;;11.70;99.90;;;;;;4953422;28;20042;-85
2021/10/30 02:18:02;;;;;;;10.40;7.93;;;11.70;99.90;;;;;;4953838;28;20066;-85
2021/10/30 02:20:28;;;;;;;11.57;8.82;;;11.70;99.90;;;;;;4953076;28;20070;-85
2021/10/30 02:22:53;;;;;;;11.43;8.10;;;11.70;99.90;;;;;;4948834;28;20449;-85
2021/10/30 02:25:23;;;;;;;13.93;9.43;;;11.80;99.90;;;;;;4968803;28;20034;-85
2021/10/30 02:27:49;;;;;;;13.70;9.05;;;11.70;99.90;;;;;;4964200;28;20039;-85
2021/10/30 02:30:15;;;;;;;13.75;9.13;;;11.70;99.90;;;;;;4961860;28;20408;-85
2021/10/30 02:32:42;;;;;;;12.88;9.10;;;11.70;99.90;;;;;;4948395;28;20043;-85
2021/10/30 02:35:08;;;;;;;13.07;8.55;;;11.80;99.90;;;;;;4932353;28;20501;-85
2021/10/30 02:37:34;;;;;;;13.15;9.10;;;11.70;99.90;;;;;;4938184;28;20049;-85
2021/10/30 02:40:00;;;;;;;15.38;8.55;;;11.70;99.90;;;;;;4928721;28;20108;-85
2021/10/30 02:42:26;;;;;;;16.17;9.95;;;11.70;99.90;;;;;;4955465;28;20568;-85
2021/10/30 02:44:51;;;;;;;15.63;9.73;;;11.60;99.90;;;;;;4956315;28;20041;-85
2021/10/30 02:47:17;;;;;;;13.45;9.88;;;11.60;99.90;;;;;;4958804;28;20508;-85
2021/10/30 02:49:43;;;;;;;15.63;10.40;;;11.50;99.90;;;;;;4936023;28;20122;-85
2021/10/30 02:52:08;;;;;;;13.98;10.40;;;11.40;99.90;;;;;;4951773;28;20102;-85
2021/10/30 02:54:34;;;;;;;15.30;10.55;;;11.40;99.90;;;;;;4952315;28;20042;-85
2021/10/30 02:57:00;;;;;;;16.13;10.65;;;11.50;99.90;;;;;;4944763;28;20041;-85
2021/10/30 02:59:25;;;;;;;17.00;10.88;;;11.50;99.90;;;;;;4956683;28;20035;-85
2021/10/30 03:01:51;;;;;;;19.38;11.80;;;11.40;99.90;;;;;;4933634;29;20043;-85
2021/10/30 03:04:17;;;;;;;14.70;11.18;;;11.40;99.90;;;;;;4951254;28;20038;-85
2021/10/30 03:06:43;;;;;;;16.27;11.23;;;11.40;99.90;;;;;;4949405;28;20038;-85
2021/10/30 03:09:08;;;;;;;16.20;11.40;;;11.30;99.90;;;;;;4943725;28;20039;-84
2021/10/30 03:11:34;;;;;;;14.90;11.70;;;11.30;99.90;;;;;;4938764;28;20417;-84
2021/10/30 03:14:00;;;;;;;18.25;12.48;;;11.30;99.90;;;;;;4930475;28;20397;-84
2021/10/30 03:16:25;;;;;;;16.02;11.80;;;11.30;99.90;;;;;;4946099;28;20047;-85
2021/10/30 03:18:51;;;;;;;17.73;12.38;;;11.30;99.90;;;;;;4948844;28;20473;-85
2021/10/30 03:21:17;;;;;;;17.73;12.80;;;11.30;99.90;;;;;;4954090;28;20138;-85
2021/10/30 03:23:42;;;;;;;18.02;13.40;;;11.30;99.90;;;;;;4954707;28;20027;-85
2021/10/30 03:26:08;;;;;;;19.80;14.48;;;11.30;99.90;;;;;;4951865;28;20098;-85
2021/10/30 03:28:33;;;;;;;20.02;13.80;;;11.30;99.90;;;;;;4938969;28;20126;-85
2021/10/30 03:30:59;;;;;;;23.33;15.10;;;11.30;99.90;;;;;;4947810;28;20062;-85
2021/10/30 03:33:25;;;;;;;19.38;13.77;;;11.30;99.90;;;;;;4954435;28;20092;-84
2021/10/30 03:35:51;;;;;;;19.50;14.43;;;11.30;99.90;;;;;;4965239;28;20463;-84
2021/10/30 03:38:16;;;;;;;17.60;14.38;;;11.30;99.90;;;;;;4948718;28;20035;-85
2021/10/30 03:40:42;;;;;;;20.10;14.23;;;11.30;99.90;;;;;;4947863;28;20095;-85
2021/10/30 03:43:08;;;;;;;22.60;15.52;;;11.30;99.90;;;;;;4945370;28;20405;-85
2021/10/30 03:45:33;;;;;;;20.27;14.75;;;11.30;99.90;;;;;;4942403;28;20535;-85
2021/10/30 03:48:07;;;;;;;24.42;14.48;;;11.30;99.90;;;;;;4932163;28;20041;-85
2021/10/30 03:50:34;;;;;;;24.52;15.27;;;11.30;99.90;;;;;;4953211;28;20038;-85
2021/10/30 03:52:59;;;;;;;21.88;14.18;;;11.30;99.90;;;;;;4926337;29;20098;-85
2021/10/30 03:55:25;;;;;;;19.20;14.77;;;11.30;99.90;;;;;;4943826;28;20034;-85
2021/10/30 03:57:51;;;;;;;21.15;15.93;;;11.20;99.90;;;;;;4933194;29;20039;-85
2021/10/30 04:00:16;;;;;;;20.80;15.43;;;11.20;99.90;;;;;;4954391;28;20043;-84
2021/10/30 04:02:43;;;;;;;22.38;15.73;;;11.20;99.90;;;;;;4951817;28;20122;-85
2021/10/30 04:05:09;;;;;;;25.02;15.90;;;11.30;99.90;;;;;;4953386;28;20130;-84
2021/10/30 04:07:34;;;;;;;22.48;15.40;;;11.20;99.90;;;;;;4950982;28;20039;-84
2021/10/30 04:10:00;;;;;;;25.67;16.55;;;11.20;99.90;;;;;;4958724;28;20053;-85
2021/10/30 04:12:26;;;;;;;21.33;15.50;;;11.30;99.90;;;;;;4970874;28;20039;-85
2021/10/30 04:14:51;;;;;;;22.15;15.88;;;11.30;99.90;;;;;;4945986;28;20043;-85
2021/10/30 04:17:17;;;;;;;22.52;14.80;;;11.40;99.90;;;;;;4953170;28;20477;-85
2021/10/30 04:19:43;;;;;;;24.98;17.10;;;11.40;99.90;;;;;;4937671;28;20046;-85
2021/10/30 04:22:08;;;;;;;21.38;17.00;;;11.40;99.90;;;;;;4953978;28;20119;-84
2021/10/30 04:24:34;;;;;;;26.05;16.63;;;11.40;99.90;;;;;;4956568;28;20062;-85
2021/10/30 04:27:00;;;;;;;23.55;16.55;;;11.40;99.90;;;;;;4947110;28;20059;-85
2021/10/30 04:29:26;;;;;;;24.13;16.70;;;11.40;99.90;;;;;;4928962;28;20031;-85
2021/10/30 04:31:55;;;;;;;23.02;17.38;;;11.40;99.90;;;;;;4937956;28;20034;-85
2021/10/30 04:34:23;;;;;;;23.65;16.55;;;11.40;99.90;;;;;;4953858;28;20042;-85
2021/10/30 04:36:50;;;;;;;26.85;17.80;;;11.40;99.90;;;;;;4940998;28;20508;-85
2021/10/30 04:39:18;;;;;;;23.75;17.50;;;11.40;99.90;;;;;;4956232;28;20043;-85
2021/10/30 04:41:44;;;;;;;25.17;17.52;;;11.50;99.90;;;;;;4951632;28;20397;-85
2021/10/30 04:44:10;;;;;;;25.27;17.27;;;11.50;99.90;;;;;;4948324;28;20043;-85
2021/10/30 04:46:37;;;;;;;25.17;17.77;;;11.50;99.90;;;;;;4929054;28;20486;-85
2021/10/30 04:49:03;;;;;;;25.23;18.77;;;11.60;99.90;;;;;;4931382;28;20038;-85
2021/10/30 04:51:28;;;;;;;23.52;17.17;;;11.60;99.90;;;;;;4942071;28;20134;-85
2021/10/30 04:53:54;;;;;;;25.55;17.85;;;11.50;99.90;;;;;;4944955;28;20264;-85
2021/10/30 04:56:20;;;;;;;26.77;18.13;;;11.50;99.90;;;;;;4944569;28;20047;-85
2021/10/30 04:58:45;;;;;;;25.58;18.73;;;11.60;99.90;;;;;;4945376;28;20062;-84
2021/10/30 05:01:15;;;;;;;27.33;18.70;;;11.60;99.90;;;;;;4955873;28;20047;-85
2021/10/30 05:03:42;;;;;;;25.42;17.52;;;11.60;99.90;;;;;;4948543;28;20035;-85
2021/10/30 05:06:10;;;;;;;25.48;18.67;;;11.60;99.90;;;;;;4937208;28;20046;-85
2021/10/30 05:08:36;;;;;;;25.95;18.25;;;11.60;99.90;;;;;;4959606;28;20409;-85
2021/10/30 05:11:02;;;;;;;28.98;18.60;;;11.60;99.90;;;;;;4938167;28;20039;-85
2021/10/30 05:13:28;;;;;;;25.05;18.02;;;11.60;99.90;;;;;;4945097;28;20498;-84
2021/10/30 05:15:53;;;;;;;24.45;17.10;;;11.60;99.90;;;;;;4944396;28;20122;-85
2021/10/30 05:18:19;;;;;;;23.88;17.05;;;11.60;99.90;;;;;;4945077;28;20035;-85
2021/10/30 05:20:44;;;;;;;23.73;17.33;;;11.60;99.90;;;;;;4957787;28;20042;-85
2021/10/30 05:23:10;;;;;;;23.08;16.73;;;11.60;99.90;;;;;;4955828;28;20477;-85
2021/10/30 05:25:35;;;;;;;24.05;16.05;;;11.70;99.90;;;;;;4961212;28;20378;-85
2021/10/30 05:28:01;;;;;;;28.17;16.80;;;11.70;99.90;;;;;;4960270;28;20226;-84
2021/10/30 05:30:26;;;;;;;22.50;15.68;;;11.70;99.90;;;;;;4958250;28;20501;-85
2021/10/30 05:32:52;;;;;;;24.90;15.88;;;11.80;99.90;;;;;;4946926;28;20439;-85
2021/10/30 05:35:18;;;;;;;21.90;15.32;;;11.80;99.90;;;;;;4956536;28;20073;-85
2021/10/30 05:37:44;;;;;;;21.58;14.57;;;11.80;99.90;;;;;;4942435;28;20121;-85
2021/10/30 05:40:11;;;;;;;21.83;13.93;;;11.80;99.90;;;;;;4938231;28;20047;-85
2021/10/30 05:42:41;;;;;;;18.50;13.20;;;11.90;99.90;;;;;;4925668;28;20566;-85
2021/10/30 05:45:08;;;;;;;19.63;13.27;;;11.90;99.90;;;;;;4951050;28;20055;-85
2021/10/30 05:47:35;;;;;;;17.58;11.98;;;12.00;99.90;;;;;;4947231;28;20057;-86
2021/10/30 05:50:02;;;;;;;19.58;12.07;;;12.10;99.90;;;;;;4946900;28;20090;-85
2021/10/30 05:52:27;;;;;;;17.42;12.23;;;12.10;99.90;;;;;;4942075;28;20043;-85
2021/10/30 05:54:53;;;;;;;20.60;11.90;;;12.10;99.90;;;;;;4949631;28;20039;-85
2021/10/30 05:57:19;;;;;;;17.83;11.90;;;12.10;99.90;;;;;;4951422;28;20501;-86
2021/10/30 05:59:46;;;;;;;16.88;11.55;;;12.20;99.90;;;;;;4934676;28;20053;-85
2021/10/30 06:02:12;;;;;;;16.05;10.75;;;12.20;99.90;;;;;;4954377;28;20046;-86
2021/10/30 06:04:39;;;;;;;14.55;10.15;;;12.20;99.90;;;;;;4954829;28;20037;-85
2021/10/30 06:07:05;;;;;;;17.15;11.18;;;12.30;99.90;;;;;;4937647;28;20047;-85
2021/10/30 06:09:31;;;;;;;18.90;11.52;;;12.30;99.90;;;;;;4954351;28;20043;-85
2021/10/30 06:11:57;;;;;;;15.65;10.25;;;12.30;99.90;;;;;;4950378;28;20093;-85
2021/10/30 06:14:22;;;;;;;15.63;10.60;;;12.30;99.90;;;;;;4959301;28;20566;-85
2021/10/30 06:16:48;;;;;;;14.55;9.65;;;12.30;99.90;;;;;;4956023;28;20039;-85
2021/10/30 06:19:14;;;;;;;15.13;9.70;;;12.20;99.90;;;;;;4934340;28;20491;-85
2021/10/30 06:21:39;;;;;;;15.23;10.05;;;12.30;99.90;;;;;;4955632;28;20122;-86
2021/10/30 06:24:05;;;;;;;15.57;9.55;;;12.30;99.90;;;;;;4953274;28;20177;-85
2021/10/30 06:26:30;;;;;;;14.98;9.90;;;12.30;99.90;;;;;;4938803;28;20035;-85
2021/10/30 06:28:56;;;;;;;14.93;9.35;;;12.30;99.90;;;;;;4952232;28;20042;-86
2021/10/30 06:31:22;;;;;;;12.32;8.93;;;12.30;99.90;;;;;;4954053;28;20215;-86
2021/10/30 06:33:49;;;;;;;13.70;8.93;;;12.30;99.90;;;;;;4938687;28;20035;-85
2021/10/30 06:36:14;;;;;;;15.55;8.70;;;12.40;99.90;;;;;;4936658;29;20054;-85
2021/10/30 06:38:40;;;;;;;14.15;8.20;;;12.40;99.90;;;;;;4955356;28;20394;-84
2021/10/30 06:41:06;;;;;;;14.00;8.82;;;12.30;99.90;;;;;;4947581;28;20392;-85
2021/10/30 06:43:33;;;;;;;11.80;8.07;;;12.30;99.90;;;;;;4955633;28;20039;-86
2021/10/30 06:45:59;;;;;;;14.93;8.80;;;12.40;99.90;;;;;;4939644;28;20396;-85
2021/10/30 06:48:25;;;;;;;13.70;8.65;;;12.40;99.70;;;;;;4948945;28;20611;-85
2021/10/30 06:50:54;;;;;;;12.25;8.35;;;12.40;99.90;;;;;;4941490;28;20509;-85
2021/10/30 06:53:20;;;;;;;11.73;7.97;;;12.40;99.90;;;;;;4953758;28;20117;-83
2021/10/30 06:55:47;;;;;;;16.30;8.68;;;12.30;99.90;;;;;;4948865;28;20154;-86
2021/10/30 06:58:13;;;;;;;14.18;8.07;;;12.30;99.90;;;;;;4938418;28;20402;-91
2021/10/30 07:00:41;;;;;;;12.63;8.35;;;12.30;99.90;;;;;;4939804;28;20047;-89
2021/10/30 07:03:27;;;;;;;12.63;9.00;;;12.20;99.90;;;;;;4960212;28;20138;-90
2021/10/30 07:07:07;;;;;;;14.30;8.38;;;12.20;99.90;;;;;;4956525;28;20114;-90
2021/10/30 07:09:58;;;;;;;16.45;8.70;;;12.20;99.90;;;;;;4960537;28;20037;-89
2021/10/30 07:12:30;;;;;;;13.07;8.32;;;12.10;99.90;;;;;;4934775;29;20074;-91
2021/10/30 07:14:59;;;;;;;16.50;9.18;;;12.40;99.90;;;;;;4955891;28;20035;-89
2021/10/30 07:17:27;;;;;;;14.13;8.40;;;12.10;99.90;;;;;;4953493;28;20049;-90
2021/10/30 07:20:02;;;;;;;14.02;8.30;;;12.10;99.90;;;;;;4947838;28;20034;-91
2021/10/30 07:22:28;;;;;;;15.88;8.30;;;12.20;99.90;;;;;;4938799;28;20042;-85
2021/10/30 07:24:54;;;;;;;13.45;8.75;;;12.00;99.90;;;;;;4963877;28;20436;-87
2021/10/30 07:27:20;;;;;;;15.15;9.07;;;12.00;99.90;;;;;;4937380;28;20081;-91
2021/10/30 07:29:47;;;;;;;15.40;9.40;;;11.90;99.90;;;;;;4940265;28;20404;-90
2021/10/30 07:32:13;;;;;;;13.88;9.32;;;11.90;99.90;;;;;;4957309;28;20049;-89
2021/10/30 07:34:40;;;;;;;15.70;9.70;;;11.80;99.90;;;;;;4956671;28;20065;-89
2021/10/30 07:37:05;;;;;;;14.82;9.55;;;12.40;99.90;;;;;;4951071;28;20047;-88
2021/10/30 07:39:32;;;;;;;16.63;8.70;;;11.80;99.90;;;;;;4953839;28;20042;-86
2021/10/30 07:41:57;;;;;;;14.50;8.88;;;11.90;99.90;;;;;;4942900;28;20069;-85
2021/10/30 07:44:23;;;;;;;16.77;9.13;;;11.90;99.90;;;;;;4931656;28;20066;-86
2021/10/30 07:46:48;;;;;;;14.82;8.98;;;11.90;99.90;;;;;;4965457;28;20031;-86
2021/10/30 07:49:14;;;;;;;21.35;9.23;;;11.90;99.90;;;;;;4963590;28;20484;-86
2021/10/30 07:51:40;;;;;;;14.82;9.13;;;11.80;99.90;;;;;;4953317;28;20085;-87
2021/10/30 07:54:05;;;;;;;15.52;9.10;;;11.80;99.90;;;;;;4944258;28;20093;-86
2021/10/30 07:56:31;;;;;;;14.32;8.60;;;11.90;99.90;;;;;;4956547;28;20053;-86
2021/10/30 07:58:57;;;;;;;13.70;9.35;;;11.90;99.90;;;;;;4948994;28;20382;-90
2021/10/30 08:01:22;;;;;;;14.35;9.60;;;12.00;99.90;;;;;;4924611;28;20046;-90
2021/10/30 08:03:48;;;;;;;16.77;8.40;;;11.90;99.90;;;;;;4946777;28;20049;-89
2021/10/30 08:06:14;;;;;;;13.50;10.07;;;12.00;99.90;;;;;;4939125;28;20038;-86
2021/10/30 08:08:39;;;;;;;15.15;9.52;;;11.90;99.90;;;;;;4949205;28;20487;-85
2021/10/30 08:11:05;;;;;;;17.35;9.98;;;11.90;99.90;;;;;;4944832;28;20043;-88
2021/10/30 08:13:31;;;;;;;15.02;9.60;;;12.00;99.90;;;;;;4960429;28;20107;-86
2021/10/30 08:15:56;;;;;;;13.82;9.63;;;11.70;99.90;;;;;;4937722;28;20568;-86
2021/10/30 08:18:23;;;;;;;17.02;10.20;;;11.80;99.90;;;;;;4933509;28;20041;-85
2021/10/30 08:20:48;;;;;;;13.63;9.43;;;11.80;99.90;;;;;;4938163;28;20382;-86
2021/10/30 08:23:14;;;;;;;13.60;9.45;;;11.80;99.90;;;;;;4943519;28;20035;-86
2021/10/30 08:25:40;;;;;;;13.52;9.95;;;11.90;99.90;;;;;;4959978;28;20042;-88
2021/10/30 08:28:05;;;;;;;15.73;10.32;;;11.80;99.90;;;;;;4936325;28;20075;-86
2021/10/30 08:30:31;;;;;;;15.18;9.63;;;11.80;99.90;;;;;;4947420;28;20068;-86
2021/10/30 08:32:57;;;;;;;13.85;9.40;;;11.90;99.90;;;;;;4948005;28;20074;-85
2021/10/30 08:35:22;;;;;;;15.55;10.00;;;11.90;99.90;;;;;;4937745;28;20043;-86
2021/10/30 08:37:48;;;;;;;13.75;9.32;;;11.90;99.90;;;;;;4948776;28;20038;-86
2021/10/30 08:40:17;;;;;;;14.80;10.07;;;11.90;99.90;;;;;;4945177;28;20042;-86
2021/10/30 08:42:50;;;;;;;16.33;9.88;;;11.90;99.90;;;;;;4945249;28;20045;-85
2021/10/30 08:45:16;;;;;;;15.05;9.80;;;11.90;99.90;;;;;;4947133;28;20031;-85
2021/10/30 08:47:48;;;;;;;13.40;8.80;;;11.90;99.90;;;;;;4951036;28;20070;-86
2021/10/30 08:50:16;;;;;;;13.70;9.73;;;11.90;99.90;;;;;;4956228;28;20047;-86
2021/10/30 08:52:42;;;;;;;15.52;10.02;;;12.00;99.90;;;;;;4948045;28;20035;-86
2021/10/30 08:55:09;;;;;;;14.77;9.60;;;12.00;99.90;;;;;;4952188;28;20035;-86
2021/10/30 08:57:38;;;;;;;13.93;9.15;;;12.00;99.90;;;;;;4949048;28;20110;-85
2021/10/30 09:00:27;;;;;;;14.93;9.20;;;12.00;99.90;;;;;;4956501;28;20438;-86
2021/10/30 09:03:02;;;;;;;13.27;9.40;;;12.00;99.90;;;;;;4933133;28;20043;-86
2021/10/30 09:05:30;;;;;;;12.60;8.95;;;12.10;99.90;;;;;;4957501;28;20043;-86
2021/10/30 09:07:57;;;;;;;14.35;9.13;;;12.10;99.90;;;;;;4964262;28;20532;-85
2021/10/30 09:10:26;;;;;;;12.68;8.20;;;12.10;99.90;;;;;;4941042;28;20134;-86
2021/10/30 09:12:58;;;;;;;12.32;8.70;;;12.20;99.90;;;;;;4950603;28;20074;-86
2021/10/30 09:15:32;;;;;;;13.20;8.52;;;12.20;99.90;;;;;;4955716;28;20497;-85
2021/10/30 09:17:59;;;;;;;13.95;9.40;;;12.20;99.90;;;;;;4932477;28;20126;-85
2021/10/30 09:20:38;;;;;;;15.52;8.75;;;12.30;99.90;;;;;;4954513;28;20078;-86
2021/10/30 09:23:08;;;;;;;11.48;7.45;;;12.30;99.90;;;;;;4940168;28;20055;-86
2021/10/30 09:25:33;;;;;;;17.45;8.43;;;12.40;99.90;;;;;;4930091;28;20046;-86
2021/10/30 09:28:01;;;;;;;15.10;8.10;;;12.40;99.90;;;;;;4953099;28;20039;-86
2021/10/30 09:30:35;;;;;;;13.13;7.63;;;12.50;99.90;;;;;;4939071;28;20042;-86
2021/10/30 09:33:02;;;;;;;11.55;7.18;;;12.40;99.90;;;;;;4934040;28;20054;-86
2021/10/30 09:35:38;;;;;;;11.57;7.32;;;12.50;99.90;;;;;;4954611;28;20042;-86
2021/10/30 09:38:04;;;;;;;13.02;7.55;;;12.50;99.90;;;;;;4941632;28;20070;-86
2021/10/30 09:40:32;;;;;;;11.48;7.20;;;12.50;99.90;;;;;;4955892;28;20035;-86
2021/10/30 09:43:15;;;;;;;12.93;7.60;;;12.60;99.90;;;;;;4949686;28;20077;-86
2021/10/30 09:45:45;;;;;;;16.83;8.15;;;12.60;99.90;;;;;;4946597;28;20038;-86
2021/10/30 09:48:15;;;;;;;14.27;7.75;;;12.60;99.90;;;;;;4936197;29;20046;-86
2021/10/30 09:50:41;;;;;;;13.40;7.70;;;12.60;99.90;;;;;;4960553;28;20038;-86
2021/10/30 09:53:26;;;;;;;13.68;7.50;;;12.60;99.90;;;;;;4938818;28;20057;-86
2021/10/30 09:55:53;;;;;;;12.73;7.72;;;12.60;99.90;;;;;;4956600;28;20456;-86
2021/10/30 09:58:34;;;;;;;11.52;7.72;;;12.60;99.90;;;;;;4935522;28;20039;-86
2021/10/30 10:01:02;;;;;;;12.02;7.30;;;12.70;99.90;;;;;;4952816;28;20125;-86
2021/10/30 10:03:30;;;;;;;12.65;7.25;;;12.70;99.90;;;;;;4951042;28;20053;-86
2021/10/30 10:05:56;;;;;;;17.02;7.78;;;12.70;99.90;;;;;;4958747;28;20035;-86
2021/10/30 10:08:24;;;;;;;11.95;7.70;;;12.70;99.90;;;;;;4962134;28;20046;-86
2021/10/30 10:10:54;;;;;;;11.00;6.90;;;12.70;99.90;;;;;;4933670;28;20093;-86
2021/10/30 10:13:21;;;;;;;9.85;6.72;;;12.70;99.90;;;;;;4934903;28;20105;-86
2021/10/30 10:15:48;;;;;;;11.27;7.28;;;12.70;99.90;;;;;;4964591;28;20050;-86
2021/10/30 10:18:14;;;;;;;10.38;7.40;;;12.70;99.90;;;;;;4954323;28;20039;-86
2021/10/30 10:20:40;;;;;;;10.88;6.18;;;12.70;99.90;;;;;;4965976;28;20109;-86
2021/10/30 10:23:05;;;;;;;10.48;6.78;;;12.80;99.90;;;;;;4944759;28;20039;-86
2021/10/30 10:25:34;;;;;;;9.27;6.70;;;12.80;99.90;;;;;;4952117;28;20049;-86
2021/10/30 10:28:48;;;;;;;11.10;7.32;;;12.80;99.90;;;;;;4938772;28;20041;-86
2021/10/30 10:31:23;;;;;;;11.45;6.72;;;12.80;99.90;;;;;;4942813;28;20046;-86
2021/10/30 10:34:15;;;;;;;12.73;6.93;;;12.80;99.90;;;;;;4932553;28;20086;-86
2021/10/30 10:36:42;;;;;;;9.80;6.95;;;12.80;99.90;;;;;;4936359;28;20122;-86
2021/10/30 10:39:17;;;;;;;11.48;6.97;;;12.80;99.90;;;;;;4934439;28;20050;-85
2021/10/30 10:41:48;;;;;;;10.18;6.45;;;12.80;99.90;;;;;;4946831;28;20086;-86
2021/10/30 10:44:42;;;;;;;12.77;6.63;;;12.80;99.90;;;;;;4939200;28;20057;-86
2021/10/30 10:47:36;;;;;;;10.65;6.57;;;12.80;99.90;;;;;;4950516;28;20046;-86
2021/10/30 10:50:21;;;;;;;9.60;5.72;;;12.90;99.90;;;;;;4944449;28;20043;-87
2021/10/30 10:53:16;;;;;;;13.07;6.05;;;12.90;99.90;;;;;;4933003;28;20039;-86
2021/10/30 10:55:44;;;;;;;12.32;7.07;;;12.90;99.90;;;;;;4933009;28;20035;-85
2021/10/30 10:58:12;;;;;;;10.85;6.72;;;12.80;99.90;;;;;;4932797;28;20394;-86
2021/10/30 11:00:58;;;;;;;10.15;6.57;;;12.80;99.90;;;;;;4955272;28;20034;-86
2021/10/30 11:03:28;;;;;;;10.73;6.40;;;12.80;99.90;;;;;;4950249;28;20038;-86
2021/10/30 11:05:57;;;;;;;9.88;6.63;;;12.80;99.90;;;;;;4960001;28;20031;-86
2021/10/30 11:08:34;;;;;;;11.88;6.57;;;12.80;99.90;;;;;;4953325;28;20564;-85
2021/10/30 11:11:13;;;;;;;10.88;7.15;;;12.90;99.90;;;;;;4949579;28;20043;-86
2021/10/30 11:13:49;;;;;;;10.68;7.18;;;12.90;99.90;;;;;;4937664;28;20030;-86
2021/10/30 11:16:22;;;;;;;13.23;6.90;;;12.90;99.90;;;;;;4947308;28;20042;-86
2021/10/30 11:19:00;;;;;;;13.90;7.28;;;12.80;99.90;;;;;;4951483;28;20130;-87
2021/10/30 11:21:34;;;;;;;12.88;7.50;;;12.80;99.90;;;;;;4932649;28;20035;-88
2021/10/30 11:24:16;;;;;;;10.27;6.25;;;12.90;99.90;;;;;;4951707;28;20042;-91
2021/10/30 11:26:42;;;;;;;9.73;7.10;;;12.90;99.90;;;;;;4934035;28;20038;-91
2021/10/30 11:29:11;;;;;;;11.98;6.72;;;12.90;99.90;;;;;;4931070;28;20047;-90
2021/10/30 11:31:38;;;;;;;13.85;7.18;;;12.90;99.90;;;;;;4936450;28;20119;-91
2021/10/30 11:34:09;;;;;;;13.65;6.93;;;12.90;99.90;;;;;;4934277;28;20122;-90
2021/10/30 11:36:37;;;;;;;10.15;6.45;;;12.90;99.90;;;;;;4945239;28;20047;-90
2021/10/30 11:39:11;;;;;;;12.85;7.13;;;12.90;99.90;;;;;;4937787;28;20040;-88
2021/10/30 11:41:39;;;;;;;11.88;7.15;;;13.00;99.90;;;;;;4952319;28;20034;-90
2021/10/30 11:44:10;;;;;;;12.63;6.93;;;13.00;99.90;;;;;;4933289;28;20042;-88
2021/10/30 11:46:44;;;;;;;9.35;6.53;;;13.00;99.90;;;;;;4938176;28;20126;-91
2021/10/30 11:49:22;;;;;;;10.98;6.35;;;13.00;99.90;;;;;;4937944;28;20047;-90
2021/10/30 11:51:48;;;;;;;13.40;7.93;;;13.00;99.90;;;;;;4967779;28;20097;-89
2021/10/30 11:54:14;;;;;;;12.05;7.35;;;12.90;99.90;;;;;;4954463;28;20074;-89
2021/10/30 11:56:44;;;;;;;16.55;7.75;;;13.00;99.90;;;;;;4939356;28;20045;-87
2021/10/30 11:59:10;;;;;;;13.50;7.80;;;13.00;99.90;;;;;;4970603;28;20586;-90
2021/10/30 12:01:48;;;;;;;10.40;6.78;;;13.10;99.90;;;;;;4952733;28;20035;-88
2021/10/30 12:04:29;;;;;;;10.43;6.53;;;13.00;99.90;;;;;;4939462;28;20039;-88
2021/10/30 12:06:57;;;;;;;11.32;6.38;;;13.00;99.90;;;;;;4962177;28;20030;-91
2021/10/30 12:09:27;;;;;;;11.65;6.75;;;13.10;99.90;;;;;;4948840;29;20050;-90
2021/10/30 12:11:58;;;;;;;9.20;6.40;;;13.00;99.90;;;;;;4960501;28;20043;-88
2021/10/30 12:14:32;;;;;;;11.57;7.13;;;13.10;99.90;;;;;;4957001;28;20039;-88
2021/10/30 12:17:00;;;;;;;12.18;6.60;;;13.10;99.90;;;;;;4964105;28;20038;-89
2021/10/30 12:19:28;;;;;;;9.50;5.90;;;13.10;99.90;;;;;;4948033;28;20039;-88
2021/10/30 12:22:11;;;;;;;10.90;6.53;;;13.10;99.90;;;;;;4940227;28;20030;-87
2021/10/30 12:24:42;;;;;;;8.13;5.50;;;13.10;99.90;;;;;;4933027;28;20489;-88
2021/10/30 12:27:08;;;;;;;9.00;6.00;;;13.10;99.90;;;;;;4949790;28;20043;-87
2021/10/30 12:33:43;;;;;;;8.93;5.53;;;13.20;99.90;;;;;;5008784;28;20465;-51
2021/10/30 12:36:09;;;;;;;10.48;6.35;;;13.30;99.90;;;;;;5008214;28;20049;-52
2021/10/30 12:38:38;;;;;;;7.72;4.97;;;13.20;99.90;;;;;;5017671;28;20117;-48
2021/10/30 12:41:20;;;;;;;10.77;5.90;;;13.20;99.90;;;;;;5008829;28;20486;-48
2021/10/30 12:43:48;;;;;;;8.68;5.05;;;13.30;99.90;;;;;;5008993;28;20429;-50
2021/10/30 12:46:14;;;;;;;9.40;6.20;;;13.30;99.90;;;;;;4987198;28;20585;-51